createdAt,value
2018-07-07T00:00:23.256Z,100.00
2018-07-07T00:02:52.960Z,100.00
2018-07-07T00:05:24.728Z,100.00
2018-07-07T00:07:53.566Z,100.00
2018-07-07T00:10:23.339Z,100.00
2018-07-07T00:12:52.144Z,100.00
2018-07-07T00:15:22.377Z,100.00
2018-07-07T00:17:51.674Z,100.00
2018-07-07T00:20:20.570Z,100.00
2018-07-07T00:22:49.389Z,100.00
2018-07-07T00:25:19.569Z,100.00
2018-07-07T00:27:49.146Z,100.00
2018-07-07T00:30:18.494Z,100.00
2018-07-07T00:32:47.329Z,100.00
2018-07-07T00:35:15.937Z,100.00
2018-07-07T00:37:44.644Z,100.00
2018-07-07T00:40:15.301Z,100.00
2018-07-07T00:42:46.915Z,100.00
2018-07-07T00:45:15.608Z,100.00
2018-07-07T00:47:44.417Z,100.00
2018-07-07T00:50:13.169Z,100.00
2018-07-07T00:52:41.872Z,100.00
2018-07-07T00:55:10.646Z,100.00
2018-07-07T00:57:39.395Z,100.00
2018-07-07T01:00:08.110Z,100.00
2018-07-07T01:02:36.843Z,100.00
2018-07-07T01:05:05.623Z,100.00
2018-07-07T01:07:34.261Z,100.00
2018-07-07T01:10:08.598Z,100.00
2018-07-07T01:12:37.303Z,100.00
2018-07-07T01:15:05.952Z,100.00
2018-07-07T01:17:34.695Z,100.00
2018-07-07T01:20:03.435Z,100.00
2018-07-07T01:22:32.189Z,100.00
2018-07-07T01:25:00.916Z,100.00
2018-07-07T01:27:38.101Z,100.00
2018-07-07T01:30:06.941Z,100.00
2018-07-07T01:32:35.709Z,100.00
2018-07-07T01:35:04.382Z,100.00
2018-07-07T01:37:33.021Z,100.00
2018-07-07T01:40:01.722Z,100.00
2018-07-07T01:42:30.371Z,100.00
2018-07-07T01:44:59.255Z,100.00
2018-07-07T01:47:27.907Z,100.00
2018-07-07T01:49:56.669Z,100.00
2018-07-07T01:52:25.373Z,100.00
2018-07-07T01:54:54.225Z,100.00
2018-07-07T01:57:22.902Z,100.00
2018-07-07T01:59:51.673Z,100.00
2018-07-07T02:02:20.431Z,100.00
2018-07-07T02:04:49.238Z,100.00
2018-07-07T02:07:18.053Z,100.00
2018-07-07T02:09:46.857Z,100.00
2018-07-07T02:12:15.592Z,100.00
2018-07-07T02:14:45.219Z,100.00
2018-07-07T02:17:14.794Z,100.00
2018-07-07T02:19:43.586Z,100.00
2018-07-07T02:22:18.277Z,100.00
2018-07-07T02:24:47.026Z,100.00
2018-07-07T02:27:15.776Z,100.00
2018-07-07T02:29:44.635Z,100.00
2018-07-07T02:32:13.324Z,100.00
2018-07-07T02:34:42.010Z,100.00
2018-07-07T02:37:10.726Z,100.00
2018-07-07T02:39:39.359Z,100.00
2018-07-07T02:42:08.091Z,100.00
2018-07-07T02:44:36.907Z,100.00
2018-07-07T02:47:05.911Z,100.00
2018-07-07T02:49:34.864Z,100.00
2018-07-07T02:52:03.570Z,100.00
2018-07-07T02:54:32.126Z,100.00
2018-07-07T02:57:00.937Z,100.00
2018-07-07T02:59:29.632Z,100.00
2018-07-07T03:01:58.425Z,100.00
2018-07-07T03:04:27.146Z,100.00
2018-07-07T03:06:55.930Z,100.00
2018-07-07T03:09:24.628Z,100.00
2018-07-07T03:11:53.454Z,100.00
2018-07-07T03:14:22.141Z,100.00
2018-07-07T03:16:50.815Z,100.00
2018-07-07T03:19:19.505Z,100.00
2018-07-07T03:21:49.489Z,100.00
2018-07-07T03:24:18.403Z,100.00
2018-07-07T03:26:47.351Z,100.00
2018-07-07T03:29:16.215Z,100.00
2018-07-07T03:31:44.831Z,100.00
2018-07-07T03:34:13.860Z,100.00
2018-07-07T03:36:42.580Z,100.00
2018-07-07T03:39:11.303Z,100.00
2018-07-07T03:41:40.064Z,100.00
2018-07-07T03:44:08.768Z,100.00
2018-07-07T03:46:37.514Z,100.00
2018-07-07T03:49:06.392Z,100.00
2018-07-07T03:51:35.183Z,100.00
2018-07-07T03:54:04.089Z,100.00
2018-07-07T03:56:32.798Z,100.00
2018-07-07T03:59:01.603Z,100.00
2018-07-07T04:01:30.258Z,100.00
2018-07-07T04:03:59.499Z,100.00
2018-07-07T04:06:28.262Z,100.00
2018-07-07T04:08:56.986Z,100.00
2018-07-07T04:11:25.617Z,100.00
2018-07-07T04:13:54.339Z,100.00
2018-07-07T04:16:23.092Z,100.00
2018-07-07T04:18:51.825Z,100.00
2018-07-07T04:21:20.649Z,100.00
2018-07-07T04:23:49.383Z,100.00
2018-07-07T04:26:18.060Z,100.00
2018-07-07T04:28:46.701Z,100.00
2018-07-07T04:31:15.365Z,100.00
2018-07-07T04:33:44.113Z,100.00
2018-07-07T04:36:13.518Z,100.00
2018-07-07T04:38:42.259Z,100.00
2018-07-07T04:41:11.104Z,100.00
2018-07-07T04:43:39.816Z,95.24
2018-07-07T04:46:11.742Z,91.72
2018-07-07T04:48:40.443Z,85.13
2018-07-07T04:51:09.359Z,79.89
2018-07-07T04:53:38.045Z,74.38
2018-07-07T04:56:07.049Z,68.67
2018-07-07T04:58:35.664Z,67.76
2018-07-07T05:01:04.345Z,64.29
2018-07-07T05:03:35.176Z,61.56
2018-07-07T05:06:03.992Z,58.30
2018-07-07T05:08:32.763Z,61.04
2018-07-07T05:11:01.482Z,59.93
2018-07-07T05:13:30.151Z,57.20
2018-07-07T05:15:58.885Z,53.54
2018-07-07T05:18:27.525Z,49.35
2018-07-07T05:20:56.097Z,46.16
2018-07-07T05:23:24.818Z,44.42
2018-07-07T05:25:53.360Z,43.70
2018-07-07T05:28:21.969Z,42.13
2018-07-07T05:30:50.494Z,42.44
2018-07-07T05:33:19.052Z,41.02
2018-07-07T05:35:47.617Z,40.58
2018-07-07T05:38:16.319Z,41.41
2018-07-07T05:40:44.837Z,39.40
2018-07-07T05:43:13.413Z,40.50
2018-07-07T05:45:41.901Z,36.41
2018-07-07T05:48:10.945Z,35.29
2018-07-07T05:50:39.496Z,35.02
2018-07-07T05:53:08.221Z,34.31
2018-07-07T05:55:36.976Z,34.14
2018-07-07T05:58:05.619Z,32.95
2018-07-07T06:00:34.165Z,33.30
2018-07-07T06:03:03.714Z,34.76
2018-07-07T06:05:32.290Z,33.81
2018-07-07T06:08:00.849Z,32.46
2018-07-07T06:10:29.390Z,32.73
2018-07-07T06:12:57.993Z,32.47
2018-07-07T06:15:26.525Z,32.87
2018-07-07T06:17:55.056Z,33.52
2018-07-07T06:20:23.609Z,31.85
2018-07-07T06:22:52.165Z,31.11
2018-07-07T06:25:20.742Z,29.98
2018-07-07T06:27:49.322Z,27.48
2018-07-07T06:30:17.859Z,26.74
2018-07-07T06:32:46.400Z,27.61
2018-07-07T06:35:14.963Z,26.05
2018-07-07T06:37:43.499Z,26.21
2018-07-07T06:40:12.048Z,25.87
2018-07-07T06:42:40.589Z,25.50
2018-07-07T06:45:09.213Z,25.74
2018-07-07T06:47:37.738Z,26.39
2018-07-07T06:50:06.273Z,26.36
2018-07-07T06:52:34.810Z,23.43
2018-07-07T06:55:03.344Z,24.17
2018-07-07T06:57:32.130Z,22.85
2018-07-07T07:00:00.997Z,23.51
2018-07-07T07:02:29.774Z,23.68
2018-07-07T07:04:58.677Z,22.83
2018-07-07T07:07:27.524Z,21.94
2018-07-07T07:09:56.120Z,23.68
2018-07-07T07:12:26.194Z,22.10
2018-07-07T07:14:55.167Z,21.31
2018-07-07T07:17:23.813Z,23.34
2018-07-07T07:19:52.462Z,25.72
2018-07-07T07:22:21.095Z,24.49
2018-07-07T07:24:49.758Z,23.03
2018-07-07T07:27:18.592Z,24.51
2018-07-07T07:29:47.499Z,25.09
2018-07-07T07:32:16.129Z,24.18
2018-07-07T07:34:44.790Z,24.51
2018-07-07T07:37:13.611Z,26.37
2018-07-07T07:39:42.282Z,23.31
2018-07-07T07:42:10.950Z,23.94
2018-07-07T07:44:39.861Z,23.64
2018-07-07T07:47:08.588Z,22.43
2018-07-07T07:49:37.422Z,23.65
2018-07-07T07:52:06.207Z,24.72
2018-07-07T07:54:34.965Z,24.63
2018-07-07T07:57:03.754Z,24.87
2018-07-07T07:59:32.408Z,25.33
2018-07-07T08:02:01.130Z,23.16
2018-07-07T08:04:29.804Z,22.98
2018-07-07T08:06:58.546Z,24.93
2018-07-07T08:09:27.324Z,26.35
2018-07-07T08:11:57.004Z,22.97
2018-07-07T08:14:25.743Z,27.42
2018-07-07T08:16:54.463Z,29.06
2018-07-07T08:19:23.226Z,25.39
2018-07-07T08:21:52.044Z,26.24
2018-07-07T08:24:20.905Z,25.96
2018-07-07T08:26:49.701Z,25.59
2018-07-07T08:29:18.389Z,26.19
2018-07-07T08:31:47.088Z,24.58
2018-07-07T08:34:15.849Z,24.97
2018-07-07T08:36:44.668Z,25.11
2018-07-07T08:39:13.757Z,25.02
2018-07-07T08:41:42.523Z,24.53
2018-07-07T08:44:12.754Z,24.44
2018-07-07T08:46:42.243Z,23.60
2018-07-07T08:49:10.879Z,23.24
2018-07-07T08:51:39.506Z,23.06
2018-07-07T08:54:08.142Z,23.62
2018-07-07T08:56:37.501Z,23.20
2018-07-07T08:59:06.180Z,22.55
2018-07-07T09:01:35.085Z,21.86
2018-07-07T09:04:03.708Z,21.59
2018-07-07T09:06:32.336Z,21.32
2018-07-07T09:09:01.054Z,22.46
2018-07-07T09:11:29.799Z,25.76
2018-07-07T09:13:58.736Z,25.61
2018-07-07T09:16:27.390Z,24.89
2018-07-07T09:18:56.247Z,24.37
2018-07-07T09:21:25.178Z,24.68
2018-07-07T09:23:53.813Z,22.10
2018-07-07T09:26:22.698Z,24.50
2018-07-07T09:28:51.371Z,22.53
2018-07-07T09:31:20.168Z,26.19
2018-07-07T09:33:48.848Z,26.85
2018-07-07T09:36:17.804Z,25.21
2018-07-07T09:38:46.558Z,22.66
2018-07-07T09:41:15.279Z,25.03
2018-07-07T09:43:45.129Z,25.66
2018-07-07T09:46:14.020Z,23.82
2018-07-07T09:48:42.704Z,25.11
2018-07-07T09:51:11.540Z,27.28
2018-07-07T09:53:40.327Z,28.18
2018-07-07T09:56:09.059Z,31.00
2018-07-07T09:58:38.000Z,30.24
2018-07-07T10:01:06.918Z,29.14
2018-07-07T10:03:35.641Z,25.93
2018-07-07T10:06:04.418Z,24.77
2018-07-07T10:08:33.209Z,27.29
2018-07-07T10:11:02.249Z,29.70
2018-07-07T10:13:31.132Z,23.72
2018-07-07T10:15:59.954Z,22.79
2018-07-07T10:18:28.596Z,22.29
2018-07-07T10:20:57.370Z,20.58
2018-07-07T10:23:26.286Z,21.21
2018-07-07T10:25:55.019Z,25.19
2018-07-07T10:28:24.631Z,29.83
2018-07-07T10:30:56.285Z,28.65
2018-07-07T10:33:25.157Z,26.97
2018-07-07T10:35:53.745Z,31.65
2018-07-07T10:38:22.359Z,32.10
2018-07-07T10:40:51.041Z,31.54
2018-07-07T10:43:20.330Z,26.24
2018-07-07T10:45:49.027Z,23.36
2018-07-07T10:48:17.479Z,23.80
2018-07-07T10:50:46.156Z,21.43
2018-07-07T10:53:14.797Z,22.22
2018-07-07T10:55:43.382Z,19.71
2018-07-07T10:58:12.010Z,19.36
2018-07-07T11:00:40.536Z,20.41
2018-07-07T11:03:09.083Z,20.51
2018-07-07T11:05:37.597Z,20.61
2018-07-07T11:08:06.495Z,19.32
2018-07-07T11:10:35.062Z,26.15
2018-07-07T11:13:10.041Z,29.31
2018-07-07T11:15:38.682Z,30.78
2018-07-07T11:18:07.342Z,26.64
2018-07-07T11:20:35.858Z,28.07
2018-07-07T11:23:04.361Z,27.13
2018-07-07T11:25:33.760Z,28.54
2018-07-07T11:28:02.377Z,27.08
2018-07-07T11:30:30.935Z,25.47
2018-07-07T11:32:59.440Z,28.40
2018-07-07T11:35:28.055Z,30.81
2018-07-07T11:37:56.615Z,33.32
2018-07-07T11:40:25.221Z,34.32
2018-07-07T11:42:54.000Z,33.82
2018-07-07T11:45:22.928Z,31.43
2018-07-07T11:47:51.582Z,32.11
2018-07-07T11:50:20.418Z,29.34
2018-07-07T11:52:49.006Z,29.90
2018-07-07T11:55:17.574Z,27.87
2018-07-07T11:57:46.171Z,33.25
2018-07-07T12:00:14.777Z,34.04
2018-07-07T12:02:43.304Z,34.73
2018-07-07T12:05:11.905Z,36.09
2018-07-07T12:07:40.556Z,33.74
2018-07-07T12:10:09.261Z,35.39
2018-07-07T12:12:37.814Z,37.61
2018-07-07T12:15:06.424Z,36.66
2018-07-07T12:17:35.025Z,35.69
2018-07-07T12:20:03.573Z,32.96
2018-07-07T12:22:32.108Z,34.73
2018-07-07T12:25:00.674Z,34.84
2018-07-07T12:27:29.270Z,37.68
2018-07-07T12:29:57.825Z,30.75
2018-07-07T12:32:26.753Z,35.08
2018-07-07T12:34:55.556Z,33.87
2018-07-07T12:37:24.118Z,34.60
2018-07-07T12:39:52.662Z,33.17
2018-07-07T12:42:21.218Z,34.99
2018-07-07T12:44:49.849Z,35.84
2018-07-07T12:47:18.365Z,34.75
2018-07-07T12:49:46.937Z,35.47
2018-07-07T12:52:15.570Z,34.41
2018-07-07T12:54:44.154Z,31.87
2018-07-07T12:57:12.756Z,34.60
2018-07-07T12:59:41.305Z,34.60
2018-07-07T13:02:09.889Z,35.54
2018-07-07T13:04:38.430Z,34.44
2018-07-07T13:07:07.054Z,35.31
2018-07-07T13:09:35.611Z,33.64
2018-07-07T13:12:04.225Z,35.12
2018-07-07T13:14:32.817Z,35.20
2018-07-07T13:17:01.424Z,36.82
2018-07-07T13:19:30.121Z,34.93
2018-07-07T13:21:58.679Z,36.83
2018-07-07T13:24:27.379Z,36.73
2018-07-07T13:26:55.896Z,36.23
2018-07-07T13:29:24.491Z,36.17
2018-07-07T13:31:53.068Z,34.99
2018-07-07T13:34:21.648Z,33.75
2018-07-07T13:36:50.204Z,34.66
2018-07-07T13:39:18.752Z,34.22
2018-07-07T13:41:47.290Z,31.29
2018-07-07T13:44:16.219Z,32.19
2018-07-07T13:46:44.789Z,31.66
2018-07-07T13:49:20.032Z,34.92
2018-07-07T13:51:48.574Z,32.74
2018-07-07T13:54:17.193Z,31.63
2018-07-07T13:56:45.942Z,33.75
2018-07-07T13:59:14.566Z,33.69
2018-07-07T14:01:43.111Z,31.01
2018-07-07T14:04:11.672Z,32.86
2018-07-07T14:06:40.190Z,33.69
2018-07-07T14:09:09.208Z,33.41
2018-07-07T14:11:37.749Z,33.81
2018-07-07T14:14:06.301Z,32.17
2018-07-07T14:16:34.815Z,31.18
2018-07-07T14:19:03.398Z,30.12
2018-07-07T14:21:31.965Z,31.69
2018-07-07T14:24:00.521Z,32.02
2018-07-07T14:26:29.140Z,32.86
2018-07-07T14:28:57.792Z,34.53
2018-07-07T14:31:26.375Z,32.81
2018-07-07T14:33:55.904Z,31.72
2018-07-07T14:36:24.478Z,31.25
2018-07-07T14:38:53.033Z,30.25
2018-07-07T14:41:23.603Z,32.73
2018-07-07T14:43:58.637Z,33.08
2018-07-07T14:46:27.987Z,33.78
2018-07-07T14:48:57.136Z,34.23
2018-07-07T14:51:25.672Z,32.56
2018-07-07T14:53:54.457Z,32.15
2018-07-07T14:56:24.372Z,31.79
2018-07-07T14:58:52.994Z,32.51
2018-07-07T15:01:21.603Z,32.25
2018-07-07T15:03:50.175Z,31.09
2018-07-07T15:06:18.761Z,31.97
2018-07-07T15:08:47.301Z,33.47
2018-07-07T15:11:15.853Z,35.38
2018-07-07T15:13:47.056Z,33.73
2018-07-07T15:16:15.702Z,34.82
2018-07-07T15:18:44.901Z,32.41
2018-07-07T15:21:13.483Z,34.87
2018-07-07T15:23:42.054Z,32.87
2018-07-07T15:26:10.683Z,33.58
2018-07-07T15:28:39.211Z,34.10
2018-07-07T15:31:07.800Z,33.21
2018-07-07T15:33:36.365Z,34.73
2018-07-07T15:36:04.912Z,34.13
2018-07-07T15:38:33.479Z,35.38
2018-07-07T15:41:02.034Z,34.53
2018-07-07T15:43:30.582Z,35.20
2018-07-07T15:45:59.171Z,34.68
2018-07-07T15:48:27.735Z,35.46
2018-07-07T15:50:56.427Z,37.25
2018-07-07T15:53:25.012Z,34.58
2018-07-07T15:55:53.743Z,33.68
2018-07-07T15:58:24.054Z,34.54
2018-07-07T16:00:52.782Z,33.36
2018-07-07T16:03:21.345Z,33.48
2018-07-07T16:05:49.949Z,34.63
2018-07-07T16:08:18.556Z,36.06
2018-07-07T16:10:47.102Z,34.73
2018-07-07T16:13:15.669Z,35.36
2018-07-07T16:15:44.418Z,35.11
2018-07-07T16:18:13.933Z,35.58
2018-07-07T16:20:42.487Z,34.70
2018-07-07T16:23:11.133Z,33.89
2018-07-07T16:25:39.718Z,34.23
2018-07-07T16:28:08.267Z,34.31
2018-07-07T16:30:36.841Z,35.87
2018-07-07T16:33:05.477Z,35.20
2018-07-07T16:35:34.035Z,37.17
2018-07-07T16:38:02.805Z,36.75
2018-07-07T16:40:31.387Z,36.62
2018-07-07T16:43:01.106Z,35.96
2018-07-07T16:45:29.711Z,35.95
2018-07-07T16:47:58.307Z,35.24
2018-07-07T16:50:26.981Z,34.76
2018-07-07T16:52:55.540Z,36.12
2018-07-07T16:55:24.201Z,35.27
2018-07-07T16:57:52.782Z,36.01
2018-07-07T17:00:21.395Z,35.53
2018-07-07T17:02:50.721Z,34.58
2018-07-07T17:05:19.322Z,36.31
2018-07-07T17:07:48.517Z,36.23
2018-07-07T17:10:17.815Z,35.61
2018-07-07T17:12:46.357Z,36.64
2018-07-07T17:15:14.910Z,37.88
2018-07-07T17:17:43.494Z,37.88
2018-07-07T17:20:12.120Z,37.67
2018-07-07T17:22:40.845Z,37.70
2018-07-07T17:25:09.450Z,37.21
2018-07-07T17:27:38.117Z,36.87
2018-07-07T17:30:06.687Z,36.47
2018-07-07T17:32:35.257Z,37.42
2018-07-07T17:35:03.814Z,36.98
2018-07-07T17:37:32.498Z,38.18
2018-07-07T17:40:01.463Z,38.46
2018-07-07T17:42:30.627Z,38.60
2018-07-07T17:44:59.953Z,38.42
2018-07-07T17:47:29.262Z,39.16
2018-07-07T17:50:00.532Z,37.71
2018-07-07T17:52:29.178Z,37.80
2018-07-07T17:54:57.889Z,36.84
2018-07-07T17:57:26.697Z,36.88
2018-07-07T17:59:55.749Z,36.86
2018-07-07T18:02:25.016Z,36.82
2018-07-07T18:04:54.319Z,38.13
2018-07-07T18:07:22.987Z,38.39
2018-07-07T18:09:51.738Z,37.34
2018-07-07T18:12:20.270Z,38.18
2018-07-07T18:14:48.846Z,38.37
2018-07-07T18:17:17.435Z,38.67
2018-07-07T18:19:45.985Z,39.28
2018-07-07T18:22:14.593Z,39.58
2018-07-07T18:24:43.144Z,38.38
2018-07-07T18:27:11.717Z,39.23
2018-07-07T18:29:40.283Z,40.16
2018-07-07T18:32:08.878Z,39.99
2018-07-07T18:34:37.431Z,40.06
2018-07-07T18:37:05.959Z,40.35
2018-07-07T18:39:34.538Z,41.94
2018-07-07T18:42:03.084Z,41.83
2018-07-07T18:44:31.662Z,40.83
2018-07-07T18:47:00.221Z,41.54
2018-07-07T18:49:28.822Z,42.50
2018-07-07T18:51:57.349Z,43.11
2018-07-07T18:54:25.911Z,44.25
2018-07-07T18:56:54.568Z,44.59
2018-07-07T18:59:23.172Z,44.12
2018-07-07T19:01:51.837Z,43.75
2018-07-07T19:04:20.500Z,44.56
2018-07-07T19:06:49.094Z,44.71
2018-07-07T19:09:17.708Z,44.17
2018-07-07T19:11:46.317Z,44.43
2018-07-07T19:14:14.924Z,45.57
2018-07-07T19:16:43.522Z,46.11
2018-07-07T19:19:12.145Z,44.98
2018-07-07T19:21:45.821Z,48.64
2018-07-07T19:24:19.616Z,47.88
2018-07-07T19:26:50.369Z,50.20
2018-07-07T19:29:19.317Z,47.56
2018-07-07T19:31:53.133Z,48.62
2018-07-07T19:34:26.838Z,47.94
2018-07-07T19:37:00.547Z,47.60
2018-07-07T19:39:29.173Z,48.60
2018-07-07T19:41:58.384Z,48.61
2018-07-07T19:44:27.097Z,49.70
2018-07-07T19:46:55.910Z,50.18
2018-07-07T19:49:24.599Z,50.64
2018-07-07T19:51:53.400Z,51.62
2018-07-07T19:54:22.131Z,55.36
2018-07-07T19:56:50.855Z,57.21
2018-07-07T19:59:19.530Z,56.68
2018-07-07T20:01:48.185Z,56.65
2018-07-07T20:04:16.906Z,54.71
2018-07-07T20:06:46.861Z,54.64
2018-07-07T20:09:15.887Z,54.69
2018-07-07T20:11:44.992Z,54.29
2018-07-07T20:14:21.824Z,53.99
2018-07-07T20:17:11.555Z,55.34
2018-07-07T20:20:58.259Z,56.44
2018-07-07T20:23:28.050Z,62.37
2018-07-07T20:26:02.806Z,63.84
2018-07-07T20:28:36.712Z,69.33
2018-07-07T20:31:05.542Z,67.72
2018-07-07T20:33:34.409Z,68.97
2018-07-07T20:36:03.312Z,71.53
2018-07-07T20:38:32.151Z,77.17
2018-07-07T20:41:00.969Z,79.60
2018-07-07T20:43:29.908Z,80.70
2018-07-07T20:45:58.735Z,80.18
2018-07-07T20:48:27.507Z,82.12
2018-07-07T20:50:56.397Z,80.86
2018-07-07T20:53:25.188Z,80.47
2018-07-07T20:55:53.972Z,78.01
2018-07-07T20:58:22.885Z,75.97
2018-07-07T21:00:51.720Z,75.79
2018-07-07T21:03:20.424Z,76.46
2018-07-07T21:05:49.241Z,76.89
2018-07-07T21:08:18.069Z,76.67
2018-07-07T21:10:46.768Z,76.78
2018-07-07T21:13:15.549Z,76.64
2018-07-07T21:15:44.432Z,76.77
2018-07-07T21:18:13.315Z,76.23
2018-07-07T21:20:42.208Z,77.04
2018-07-07T21:23:11.107Z,78.61
2018-07-07T21:25:39.951Z,78.85
2018-07-07T21:28:08.710Z,84.50
2018-07-07T21:30:37.482Z,82.84
2018-07-07T21:33:06.224Z,80.61
2018-07-07T21:35:35.020Z,93.13
2018-07-07T21:38:03.725Z,98.73
2018-07-07T21:40:32.494Z,98.44
2018-07-07T21:43:01.174Z,99.76
2018-07-07T21:45:29.900Z,99.32
2018-07-07T21:47:58.594Z,100.00
2018-07-07T21:50:27.263Z,99.64
2018-07-07T21:52:56.131Z,99.15
2018-07-07T21:55:24.863Z,96.74
2018-07-07T21:57:58.742Z,96.12
2018-07-07T22:00:32.542Z,96.11
2018-07-07T22:03:06.487Z,94.79
2018-07-07T22:05:39.353Z,94.09
2018-07-07T22:08:26.557Z,93.01
2018-07-07T22:10:55.482Z,93.28
2018-07-07T22:13:24.275Z,93.69
2018-07-07T22:15:52.964Z,94.39
2018-07-07T22:18:21.838Z,93.11
2018-07-07T22:21:01.696Z,94.35
2018-07-07T22:23:30.282Z,93.60
2018-07-07T22:25:58.922Z,93.91
2018-07-07T22:28:27.912Z,94.77
2018-07-07T22:30:56.946Z,97.06
2018-07-07T22:33:26.947Z,100.00
2018-07-07T22:36:00.791Z,100.00
2018-07-07T22:38:34.842Z,100.00
2018-07-07T22:41:03.793Z,100.00
2018-07-07T22:43:32.486Z,100.00
2018-07-07T22:46:01.602Z,100.00
2018-07-07T22:48:30.522Z,100.00
2018-07-07T22:50:59.182Z,100.00
2018-07-07T22:53:27.821Z,100.00
2018-07-07T22:55:56.435Z,100.00
2018-07-07T22:58:25.103Z,100.00
2018-07-07T23:00:53.801Z,100.00
2018-07-07T23:03:22.624Z,100.00
2018-07-07T23:05:51.308Z,100.00
2018-07-07T23:08:19.983Z,100.00
2018-07-07T23:10:48.696Z,100.00
2018-07-07T23:13:17.370Z,100.00
2018-07-07T23:15:46.028Z,100.00
2018-07-07T23:18:14.774Z,100.00
2018-07-07T23:20:43.656Z,100.00
2018-07-07T23:23:12.450Z,100.00
2018-07-07T23:25:41.201Z,100.00
2018-07-07T23:28:09.865Z,100.00
2018-07-07T23:30:38.689Z,100.00
2018-07-07T23:33:07.308Z,100.00
2018-07-07T23:35:36.034Z,100.00
2018-07-07T23:38:04.768Z,100.00
2018-07-07T23:40:33.399Z,100.00
2018-07-07T23:43:02.108Z,100.00
2018-07-07T23:45:30.812Z,100.00
2018-07-07T23:47:59.552Z,100.00
2018-07-07T23:50:28.224Z,100.00
2018-07-07T23:52:56.876Z,100.00
2018-07-07T23:55:25.603Z,100.00
2018-07-07T23:57:54.341Z,100.00
